Main page
METAR-TAF:

METAR-TAF

Airports :

Pointe-à-Pitre, Guadeloupe

Pointe-à-Pitre International Airport

latitude: 16-16N, longitude: 061-31W, elevation: 11 m

Current weather observation

The report was made 12 minutes ago, at 19:00 UTC
Wind 10 kt from the East, varying between East/Northeast and East/Southeast
Temperature 28°C
Humidity 66%
Pressure 1015 hPa
Visibility 10 km or more
Few clouds at a height of 4500 ft

METAR: TFFR 191900Z AUTO 09010KT 060V120 9999 FEW045 28/21 Q1015 TEMPO 4000 SHRA SCT015TCU

Time: 15:12 (19:12 UTC)

Forecast

The report was made 2 hours and 12 minutes ago, at 17:00 UTC
Forecast valid from 19 at 18 UTC to 20 at 18 UTC
Wind 12 kt from the East
Visibility 10 km or more
Scattered clouds at a height of 3000 ft
Probability 30% :
Temporary
from 19 at 18 UTC to 19 at 24 UTC
Visibility: 4000 m
Scattered clouds at a height of 1500 ft, Towering cumulus.
rain showers

TAF: TFFR 191700Z 1918/2018 10012KT 9999 SCT030 PROB30 TEMPO 1918/1924 4000 SHRA SCT015TCU

Weather observations and forecasts of more than 4000 airports (METAR and TAF reports).

The available stations are represented by yellow and red dots on the map.

Hover mouse over dot to see the name of the station.

Then click to see weather observations and forecasts.

To change the map : click on the green buttons with a black cross to zoom in, on the green button with a dash to zoom out, or on the green arrows for adjacent maps.


METAR-TAF: